sensor_id;sensor_type;location;lat;lon;timestamp;pressure;altitude;pressure_sealevel;temperature;humidity
12536;BME280;6334;48.696;2.114;2023-03-08T00:01:44;98241.64;;;6.17;77.44
12536;BME280;6334;48.696;2.114;2023-03-08T00:04:15;98237.20;;;6.51;75.36
12536;BME280;6334;48.696;2.114;2023-03-08T00:06:46;98231.97;;;5.97;77.74
12536;BME280;6334;48.696;2.114;2023-03-08T00:09:17;98233.03;;;6.12;79.03
12536;BME280;6334;48.696;2.114;2023-03-08T00:11:47;98229.27;;;6.21;78.13
12536;BME280;6334;48.696;2.114;2023-03-08T00:14:19;98229.69;;;5.91;78.32
12536;BME280;6334;48.696;2.114;2023-03-08T00:16:49;98225.92;;;6.16;77.48
12536;BME280;6334;48.696;2.114;2023-03-08T00:19:20;98225.45;;;6.18;77.72
12536;BME280;6334;48.696;2.114;2023-03-08T00:21:50;98219.67;;;6.05;78.76
12536;BME280;6334;48.696;2.114;2023-03-08T00:24:21;98214.20;;;6.12;78.58
12536;BME280;6334;48.696;2.114;2023-03-08T00:26:51;98212.37;;;6.14;78.82
12536;BME280;6334;48.696;2.114;2023-03-08T00:29:22;98202.50;;;6.11;78.50
12536;BME280;6334;48.696;2.114;2023-03-08T00:31:52;98200.78;;;6.21;79.21
12536;BME280;6334;48.696;2.114;2023-03-08T00:34:22;98191.91;;;5.99;78.45
12536;BME280;6334;48.696;2.114;2023-03-08T00:36:53;98186.20;;;6.09;79.18
12536;BME280;6334;48.696;2.114;2023-03-08T00:39:23;98177.10;;;6.14;79.13
12536;BME280;6334;48.696;2.114;2023-03-08T00:41:54;98166.20;;;6.24;78.61
12536;BME280;6334;48.696;2.114;2023-03-08T00:44:24;98164.79;;;6.17;77.90
12536;BME280;6334;48.696;2.114;2023-03-08T00:46:55;98153.26;;;5.91;80.07
12536;BME280;6334;48.696;2.114;2023-03-08T00:49:25;98144.27;;;5.99;79.80
12536;BME280;6334;48.696;2.114;2023-03-08T00:51:56;98139.90;;;5.96;79.75
12536;BME280;6334;48.696;2.114;2023-03-08T00:54:26;98132.46;;;5.91;80.77
12536;BME280;6334;48.696;2.114;2023-03-08T00:56:57;98124.20;;;6.26;78.49
12536;BME280;6334;48.696;2.114;2023-03-08T00:59:27;98117.63;;;6.08;79.18
12536;BME280;6334;48.696;2.114;2023-03-08T01:01:57;98105.14;;;5.94;79.10
12536;BME280;6334;48.696;2.114;2023-03-08T01:04:28;98107.11;;;6.22;78.46
12536;BME280;6334;48.696;2.114;2023-03-08T01:06:59;98097.86;;;6.19;79.36
12536;BME280;6334;48.696;2.114;2023-03-08T01:09:29;98092.81;;;6.00;79.42
12536;BME280;6334;48.696;2.114;2023-03-08T01:11:59;98076.43;;;6.02;79.04
12536;BME280;6334;48.696;2.114;2023-03-08T01:14:30;98075.70;;;6.11;78.30
12536;BME280;6334;48.696;2.114;2023-03-08T01:17:00;98063.48;;;5.91;80.08
12536;BME280;6334;48.696;2.114;2023-03-08T01:19:31;98064.44;;;5.85;80.62
12536;BME280;6334;48.696;2.114;2023-03-08T01:22:01;98059.20;;;6.01;80.60
12536;BME280;6334;48.696;2.114;2023-03-08T01:24:32;98061.61;;;6.01;79.34
12536;BME280;6334;48.696;2.114;2023-03-08T01:27:02;98051.23;;;5.78;80.69
12536;BME280;6334;48.696;2.114;2023-03-08T01:29:32;98032.13;;;5.93;80.73
12536;BME280;6334;48.696;2.114;2023-03-08T01:32:03;98027.42;;;5.77;81.44
12536;BME280;6334;48.696;2.114;2023-03-08T01:34:33;98024.34;;;5.91;80.24
12536;BME280;6334;48.696;2.114;2023-03-08T01:37:04;98011.49;;;5.93;79.98
12536;BME280;6334;48.696;2.114;2023-03-08T01:39:34;98011.66;;;5.93;80.68
12536;BME280;6334;48.696;2.114;2023-03-08T01:42:05;98010.49;;;6.20;79.37
12536;BME280;6334;48.696;2.114;2023-03-08T01:44:54;98012.50;;;6.00;81.04
12536;BME280;6334;48.696;2.114;2023-03-08T01:47:24;97996.52;;;6.12;80.15
12536;BME280;6334;48.696;2.114;2023-03-08T01:49:54;97994.29;;;5.82;82.06
12536;BME280;6334;48.696;2.114;2023-03-08T01:52:40;97988.86;;;6.23;79.41
12536;BME280;6334;48.696;2.114;2023-03-08T01:55:09;97985.50;;;6.00;80.82
12536;BME280;6334;48.696;2.114;2023-03-08T01:57:45;97987.36;;;5.99;81.07
12536;BME280;6334;48.696;2.114;2023-03-08T02:00:13;97988.59;;;6.27;79.87
12536;BME280;6334;48.696;2.114;2023-03-08T02:02:47;97978.52;;;6.21;79.45
12536;BME280;6334;48.696;2.114;2023-03-08T02:05:13;97963.32;;;5.92;81.47
12536;BME280;6334;48.696;2.114;2023-03-08T02:07:43;97963.28;;;6.19;79.82
12536;BME280;6334;48.696;2.114;2023-03-08T02:10:14;97961.67;;;6.06;80.56
12536;BME280;6334;48.696;2.114;2023-03-08T02:12:44;97957.28;;;6.06;80.90
12536;BME280;6334;48.696;2.114;2023-03-08T02:15:16;97954.39;;;5.93;82.66
12536;BME280;6334;48.696;2.114;2023-03-08T02:17:45;97952.35;;;6.02;81.01
12536;BME280;6334;48.696;2.114;2023-03-08T02:20:28;97942.38;;;6.02;81.71
12536;BME280;6334;48.696;2.114;2023-03-08T02:23:12;97935.23;;;6.05;82.04
12536;BME280;6334;48.696;2.114;2023-03-08T02:25:38;97921.20;;;5.87;82.42
12536;BME280;6334;48.696;2.114;2023-03-08T02:28:08;97913.37;;;5.87;82.45
12536;BME280;6334;48.696;2.114;2023-03-08T02:30:39;97903.95;;;6.06;80.99
12536;BME280;6334;48.696;2.114;2023-03-08T02:33:09;97886.56;;;6.06;82.13
12536;BME280;6334;48.696;2.114;2023-03-08T02:35:40;97876.94;;;5.98;81.43
12536;BME280;6334;48.696;2.114;2023-03-08T02:38:11;97871.25;;;6.05;80.98
12536;BME280;6334;48.696;2.114;2023-03-08T02:40:41;97858.08;;;5.98;82.65
12536;BME280;6334;48.696;2.114;2023-03-08T02:43:11;97850.38;;;5.83;82.63
12536;BME280;6334;48.696;2.114;2023-03-08T02:45:42;97846.98;;;5.89;82.41
12536;BME280;6334;48.696;2.114;2023-03-08T02:48:12;97827.30;;;6.18;80.74
12536;BME280;6334;48.696;2.114;2023-03-08T02:50:43;97827.98;;;5.92;81.86
12536;BME280;6334;48.696;2.114;2023-03-08T02:53:13;97812.55;;;6.16;81.59
12536;BME280;6334;48.696;2.114;2023-03-08T02:55:43;97805.08;;;5.91;82.71
12536;BME280;6334;48.696;2.114;2023-03-08T02:58:14;97792.94;;;5.96;81.70
12536;BME280;6334;48.696;2.114;2023-03-08T03:00:44;97797.47;;;6.01;82.45
12536;BME280;6334;48.696;2.114;2023-03-08T03:03:15;97783.75;;;5.99;82.52
12536;BME280;6334;48.696;2.114;2023-03-08T03:05:45;97770.55;;;5.97;83.20
12536;BME280;6334;48.696;2.114;2023-03-08T03:08:16;97762.31;;;6.04;82.46
12536;BME280;6334;48.696;2.114;2023-03-08T03:10:46;97739.87;;;5.78;83.53
12536;BME280;6334;48.696;2.114;2023-03-08T03:13:17;97729.55;;;6.25;81.52
12536;BME280;6334;48.696;2.114;2023-03-08T03:15:47;97726.31;;;6.05;82.40
12536;BME280;6334;48.696;2.114;2023-03-08T03:18:18;97726.38;;;5.90;82.34
12536;BME280;6334;48.696;2.114;2023-03-08T03:20:48;97712.09;;;5.91;83.03
12536;BME280;6334;48.696;2.114;2023-03-08T03:23:18;97709.09;;;5.85;82.78
12536;BME280;6334;48.696;2.114;2023-03-08T03:25:49;97704.33;;;5.88;82.47
12536;BME280;6334;48.696;2.114;2023-03-08T03:28:19;97700.33;;;5.84;82.91
12536;BME280;6334;48.696;2.114;2023-03-08T03:30:51;97707.34;;;5.73;83.12
12536;BME280;6334;48.696;2.114;2023-03-08T03:33:21;97688.04;;;5.73;83.42
12536;BME280;6334;48.696;2.114;2023-03-08T03:35:52;97687.03;;;5.92;83.05
12536;BME280;6334;48.696;2.114;2023-03-08T03:38:22;97676.52;;;5.91;82.65
12536;BME280;6334;48.696;2.114;2023-03-08T03:41:03;97675.27;;;5.83;83.34
12536;BME280;6334;48.696;2.114;2023-03-08T03:43:33;97666.09;;;5.71;83.84
12536;BME280;6334;48.696;2.114;2023-03-08T03:46:04;97657.09;;;5.99;81.85
12536;BME280;6334;48.696;2.114;2023-03-08T03:48:34;97649.39;;;5.67;83.83
12536;BME280;6334;48.696;2.114;2023-03-08T03:51:05;97632.44;;;5.57;84.78
12536;BME280;6334;48.696;2.114;2023-03-08T03:53:35;97626.61;;;5.80;83.95
12536;BME280;6334;48.696;2.114;2023-03-08T03:56:11;97622.46;;;5.83;83.96
12536;BME280;6334;48.696;2.114;2023-03-08T03:58:38;97622.58;;;5.96;82.51
12536;BME280;6334;48.696;2.114;2023-03-08T04:01:10;97606.98;;;6.07;82.95
12536;BME280;6334;48.696;2.114;2023-03-08T04:03:39;97591.47;;;5.92;82.57
12536;BME280;6334;48.696;2.114;2023-03-08T04:06:14;97587.02;;;5.95;83.41
12536;BME280;6334;48.696;2.114;2023-03-08T04:08:43;97583.47;;;5.80;84.04
12536;BME280;6334;48.696;2.114;2023-03-08T04:11:14;97583.22;;;5.88;83.58
12536;BME280;6334;48.696;2.114;2023-03-08T04:13:43;97573.62;;;5.70;84.83
12536;BME280;6334;48.696;2.114;2023-03-08T04:16:21;97558.53;;;5.81;83.46
12536;BME280;6334;48.696;2.114;2023-03-08T04:18:54;97566.11;;;5.71;84.54
12536;BME280;6334;48.696;2.114;2023-03-08T04:21:24;97548.19;;;6.15;82.80
12536;BME280;6334;48.696;2.114;2023-03-08T04:23:55;97547.59;;;6.15;82.67
12536;BME280;6334;48.696;2.114;2023-03-08T04:26:25;97550.95;;;5.72;84.21
12536;BME280;6334;48.696;2.114;2023-03-08T04:28:55;97560.61;;;5.83;84.51
12536;BME280;6334;48.696;2.114;2023-03-08T04:31:27;97562.92;;;5.92;83.59
12536;BME280;6334;48.696;2.114;2023-03-08T04:33:56;97565.05;;;6.04;83.44
12536;BME280;6334;48.696;2.114;2023-03-08T04:36:27;97546.11;;;5.90;83.92
12536;BME280;6334;48.696;2.114;2023-03-08T04:38:58;97552.74;;;6.02;83.18
12536;BME280;6334;48.696;2.114;2023-03-08T04:41:29;97559.06;;;6.03;83.63
12536;BME280;6334;48.696;2.114;2023-03-08T04:43:59;97552.63;;;5.95;84.71
12536;BME280;6334;48.696;2.114;2023-03-08T04:46:29;97547.57;;;5.95;84.55
12536;BME280;6334;48.696;2.114;2023-03-08T04:49:01;97539.30;;;5.99;84.42
12536;BME280;6334;48.696;2.114;2023-03-08T04:51:32;97528.76;;;5.90;84.74
12536;BME280;6334;48.696;2.114;2023-03-08T04:54:02;97512.05;;;6.00;84.38
12536;BME280;6334;48.696;2.114;2023-03-08T04:56:33;97527.75;;;5.96;84.74
12536;BME280;6334;48.696;2.114;2023-03-08T04:59:03;97513.53;;;5.89;85.01
12536;BME280;6334;48.696;2.114;2023-03-08T05:01:34;97527.06;;;6.04;85.11
12536;BME280;6334;48.696;2.114;2023-03-08T05:04:04;97520.88;;;6.28;84.14
12536;BME280;6334;48.696;2.114;2023-03-08T05:06:35;97520.64;;;6.13;84.92
12536;BME280;6334;48.696;2.114;2023-03-08T05:09:05;97503.92;;;6.10;85.28
12536;BME280;6334;48.696;2.114;2023-03-08T05:11:37;97507.56;;;6.08;85.35
12536;BME280;6334;48.696;2.114;2023-03-08T05:14:08;97509.37;;;6.19;84.35
12536;BME280;6334;48.696;2.114;2023-03-08T05:16:38;97496.20;;;6.21;85.03
12536;BME280;6334;48.696;2.114;2023-03-08T05:19:08;97476.03;;;6.20;85.87
12536;BME280;6334;48.696;2.114;2023-03-08T05:21:39;97484.51;;;6.36;84.61
12536;BME280;6334;48.696;2.114;2023-03-08T05:24:09;97478.18;;;6.38;84.90
12536;BME280;6334;48.696;2.114;2023-03-08T05:26:40;97463.14;;;6.33;85.18
12536;BME280;6334;48.696;2.114;2023-03-08T05:29:10;97466.45;;;6.38;85.31
12536;BME280;6334;48.696;2.114;2023-03-08T05:31:40;97474.77;;;6.36;86.33
12536;BME280;6334;48.696;2.114;2023-03-08T05:34:11;97463.09;;;6.46;85.39
12536;BME280;6334;48.696;2.114;2023-03-08T05:36:41;97462.57;;;6.49;86.20
12536;BME280;6334;48.696;2.114;2023-03-08T05:39:12;97454.83;;;6.55;85.26
12536;BME280;6334;48.696;2.114;2023-03-08T05:41:42;97467.61;;;6.71;84.58
12536;BME280;6334;48.696;2.114;2023-03-08T05:44:13;97457.66;;;6.70;84.87
12536;BME280;6334;48.696;2.114;2023-03-08T05:46:43;97449.22;;;6.48;87.00
12536;BME280;6334;48.696;2.114;2023-03-08T05:49:14;97447.09;;;6.72;86.68
12536;BME280;6334;48.696;2.114;2023-03-08T05:51:44;97446.86;;;6.65;86.63
12536;BME280;6334;48.696;2.114;2023-03-08T05:54:15;97445.38;;;6.72;86.41
12536;BME280;6334;48.696;2.114;2023-03-08T05:56:45;97445.77;;;6.83;86.45
12536;BME280;6334;48.696;2.114;2023-03-08T05:59:16;97446.05;;;6.73;86.86
12536;BME280;6334;48.696;2.114;2023-03-08T06:01:46;97438.98;;;6.79;86.75
12536;BME280;6334;48.696;2.114;2023-03-08T06:04:16;97429.20;;;6.80;87.58
12536;BME280;6334;48.696;2.114;2023-03-08T06:06:47;97437.23;;;7.00;87.55
12536;BME280;6334;48.696;2.114;2023-03-08T06:09:17;97428.92;;;6.80;89.07
12536;BME280;6334;48.696;2.114;2023-03-08T06:11:49;97432.82;;;6.93;88.56
12536;BME280;6334;48.696;2.114;2023-03-08T06:14:20;97428.38;;;7.05;88.54
12536;BME280;6334;48.696;2.114;2023-03-08T06:16:50;97436.70;;;7.04;89.00
12536;BME280;6334;48.696;2.114;2023-03-08T06:19:21;97444.99;;;7.07;89.54
12536;BME280;6334;48.696;2.114;2023-03-08T06:21:51;97428.67;;;7.08;89.39
12536;BME280;6334;48.696;2.114;2023-03-08T06:24:23;97456.37;;;7.21;89.84
12536;BME280;6334;48.696;2.114;2023-03-08T06:26:54;97434.55;;;7.16;90.20
12536;BME280;6334;48.696;2.114;2023-03-08T06:29:25;97455.86;;;7.33;89.95
12536;BME280;6334;48.696;2.114;2023-03-08T06:31:55;97460.26;;;7.43;90.00
12536;BME280;6334;48.696;2.114;2023-03-08T06:34:26;97467.14;;;7.49;90.37
12536;BME280;6334;48.696;2.114;2023-03-08T06:36:57;97470.21;;;7.59;89.76
12536;BME280;6334;48.696;2.114;2023-03-08T06:39:27;97472.53;;;7.60;89.93
12536;BME280;6334;48.696;2.114;2023-03-08T06:41:57;97481.42;;;7.63;90.02
12536;BME280;6334;48.696;2.114;2023-03-08T06:44:30;97480.97;;;7.76;89.29
12536;BME280;6334;48.696;2.114;2023-03-08T06:46:58;97477.30;;;7.73;89.93
12536;BME280;6334;48.696;2.114;2023-03-08T06:49:29;97483.28;;;7.83;89.16
12536;BME280;6334;48.696;2.114;2023-03-08T06:52:00;97482.13;;;7.85;89.89
12536;BME280;6334;48.696;2.114;2023-03-08T06:54:31;97488.20;;;7.94;89.85
12536;BME280;6334;48.696;2.114;2023-03-08T06:57:01;97479.55;;;8.04;89.97
12536;BME280;6334;48.696;2.114;2023-03-08T06:59:32;97485.08;;;8.14;89.20
12536;BME280;6334;48.696;2.114;2023-03-08T07:02:02;97482.73;;;8.07;90.04
12536;BME280;6334;48.696;2.114;2023-03-08T07:04:32;97493.23;;;8.15;89.77
12536;BME280;6334;48.696;2.114;2023-03-08T07:07:03;97496.44;;;8.14;90.19
12536;BME280;6334;48.696;2.114;2023-03-08T07:09:33;97502.30;;;8.13;89.70
12536;BME280;6334;48.696;2.114;2023-03-08T07:12:04;97511.85;;;8.33;89.57
12536;BME280;6334;48.696;2.114;2023-03-08T07:14:34;97514.88;;;8.36;89.47
12536;BME280;6334;48.696;2.114;2023-03-08T07:17:06;97512.11;;;8.31;90.12
12536;BME280;6334;48.696;2.114;2023-03-08T07:19:37;97502.50;;;8.43;90.09
12536;BME280;6334;48.696;2.114;2023-03-08T07:22:07;97509.38;;;8.49;90.01
12536;BME280;6334;48.696;2.114;2023-03-08T07:24:38;97500.53;;;8.49;90.31
12536;BME280;6334;48.696;2.114;2023-03-08T07:27:08;97502.45;;;8.50;90.41
12536;BME280;6334;48.696;2.114;2023-03-08T07:29:38;97507.72;;;8.58;90.50
12536;BME280;6334;48.696;2.114;2023-03-08T07:32:09;97506.52;;;8.68;90.10
12536;BME280;6334;48.696;2.114;2023-03-08T07:34:39;97505.16;;;8.69;90.48
12536;BME280;6334;48.696;2.114;2023-03-08T07:37:14;97502.66;;;8.79;90.89
12536;BME280;6334;48.696;2.114;2023-03-08T07:39:43;97505.00;;;8.76;90.42
12536;BME280;6334;48.696;2.114;2023-03-08T07:42:14;97498.02;;;8.90;90.49
12536;BME280;6334;48.696;2.114;2023-03-08T07:44:44;97494.63;;;8.82;90.35
12536;BME280;6334;48.696;2.114;2023-03-08T07:47:15;97489.07;;;8.89;90.02
12536;BME280;6334;48.696;2.114;2023-03-08T07:49:45;97483.30;;;9.01;90.54
12536;BME280;6334;48.696;2.114;2023-03-08T07:52:16;97494.88;;;9.00;90.45
12536;BME280;6334;48.696;2.114;2023-03-08T07:54:46;97509.18;;;8.99;90.00
12536;BME280;6334;48.696;2.114;2023-03-08T07:57:16;97513.36;;;9.00;90.44
12536;BME280;6334;48.696;2.114;2023-03-08T07:59:47;97513.20;;;9.07;90.05
12536;BME280;6334;48.696;2.114;2023-03-08T08:02:17;97521.16;;;9.13;89.74
12536;BME280;6334;48.696;2.114;2023-03-08T08:04:48;97520.27;;;9.15;89.64
12536;BME280;6334;48.696;2.114;2023-03-08T08:07:18;97533.48;;;9.31;89.04
12536;BME280;6334;48.696;2.114;2023-03-08T08:09:51;97528.67;;;9.30;89.78
12536;BME280;6334;48.696;2.114;2023-03-08T08:12:22;97530.36;;;9.41;89.80
12536;BME280;6334;48.696;2.114;2023-03-08T08:14:52;97522.98;;;9.57;89.03
12536;BME280;6334;48.696;2.114;2023-03-08T08:17:23;97528.91;;;9.63;89.47
12536;BME280;6334;48.696;2.114;2023-03-08T08:19:53;97533.09;;;9.67;89.22
12536;BME280;6334;48.696;2.114;2023-03-08T08:22:24;97540.61;;;9.81;89.20
12536;BME280;6334;48.696;2.114;2023-03-08T08:24:54;97545.16;;;9.77;89.19
12536;BME280;6334;48.696;2.114;2023-03-08T08:27:25;97541.98;;;9.72;89.34
12536;BME280;6334;48.696;2.114;2023-03-08T08:29:55;97538.63;;;9.77;88.65
12536;BME280;6334;48.696;2.114;2023-03-08T08:32:26;97539.94;;;9.84;88.88
12536;BME280;6334;48.696;2.114;2023-03-08T08:34:56;97543.66;;;9.86;89.23
12536;BME280;6334;48.696;2.114;2023-03-08T08:37:27;97536.49;;;9.81;89.06
12536;BME280;6334;48.696;2.114;2023-03-08T08:39:58;97534.11;;;9.72;89.06
12536;BME280;6334;48.696;2.114;2023-03-08T08:42:28;97554.39;;;9.78;89.44
12536;BME280;6334;48.696;2.114;2023-03-08T08:44:59;97564.20;;;9.77;89.44
12536;BME280;6334;48.696;2.114;2023-03-08T08:47:30;97558.72;;;9.78;89.20
12536;BME280;6334;48.696;2.114;2023-03-08T08:50:00;97550.34;;;9.76;89.49
12536;BME280;6334;48.696;2.114;2023-03-08T08:52:31;97560.03;;;9.84;89.41
12536;BME280;6334;48.696;2.114;2023-03-08T08:55:01;97566.70;;;9.92;88.47
12536;BME280;6334;48.696;2.114;2023-03-08T08:57:33;97562.49;;;9.84;89.26
12536;BME280;6334;48.696;2.114;2023-03-08T09:00:02;97570.03;;;9.88;88.90
12536;BME280;6334;48.696;2.114;2023-03-08T09:02:35;97569.35;;;9.93;89.41
12536;BME280;6334;48.696;2.114;2023-03-08T09:05:06;97568.28;;;9.98;88.65
12536;BME280;6334;48.696;2.114;2023-03-08T09:07:36;97572.10;;;9.96;89.21
12536;BME280;6334;48.696;2.114;2023-03-08T09:10:07;97568.83;;;10.04;89.32
12536;BME280;6334;48.696;2.114;2023-03-08T09:12:38;97559.67;;;10.01;89.93
12536;BME280;6334;48.696;2.114;2023-03-08T09:15:08;97557.55;;;10.09;89.22
12536;BME280;6334;48.696;2.114;2023-03-08T09:17:38;97557.78;;;10.21;88.78
12536;BME280;6334;48.696;2.114;2023-03-08T09:20:09;97562.34;;;10.38;89.15
12536;BME280;6334;48.696;2.114;2023-03-08T09:22:40;97558.12;;;10.56;89.07
12536;BME280;6334;48.696;2.114;2023-03-08T09:25:11;97565.39;;;10.66;88.30
12536;BME280;6334;48.696;2.114;2023-03-08T09:27:41;97566.06;;;10.65;88.21
12536;BME280;6334;48.696;2.114;2023-03-08T09:30:12;97566.93;;;10.76;88.02
12536;BME280;6334;48.696;2.114;2023-03-08T09:32:42;97564.50;;;10.77;88.77
12536;BME280;6334;48.696;2.114;2023-03-08T09:35:13;97576.95;;;10.74;88.50
12536;BME280;6334;48.696;2.114;2023-03-08T09:37:44;97577.81;;;11.07;86.71
12536;BME280;6334;48.696;2.114;2023-03-08T09:40:19;97580.55;;;11.10;87.38
12536;BME280;6334;48.696;2.114;2023-03-08T09:42:48;97559.49;;;11.08;87.09
12536;BME280;6334;48.696;2.114;2023-03-08T09:45:26;97573.98;;;11.13;87.54
12536;BME280;6334;48.696;2.114;2023-03-08T09:48:16;97574.22;;;11.21;86.96
12536;BME280;6334;48.696;2.114;2023-03-08T09:55:51;97580.75;;;11.29;86.67
12536;BME280;6334;48.696;2.114;2023-03-08T09:58:36;97584.26;;;11.18;86.97
12536;BME280;6334;48.696;2.114;2023-03-08T10:11:54;97589.34;;;11.09;86.65
12536;BME280;6334;48.696;2.114;2023-03-08T10:14:26;97582.94;;;11.21;87.42
12536;BME280;6334;48.696;2.114;2023-03-08T10:16:58;97573.50;;;11.33;86.97
12536;BME280;6334;48.696;2.114;2023-03-08T10:19:32;97588.80;;;11.45;86.51
12536;BME280;6334;48.696;2.114;2023-03-08T10:22:03;97589.96;;;11.54;86.59
12536;BME280;6334;48.696;2.114;2023-03-08T10:24:40;97588.80;;;11.45;86.34
12536;BME280;6334;48.696;2.114;2023-03-08T10:27:18;97590.09;;;11.32;87.10
12536;BME280;6334;48.696;2.114;2023-03-08T10:29:48;97594.23;;;11.35;86.14
12536;BME280;6334;48.696;2.114;2023-03-08T10:32:18;97595.52;;;11.50;86.49
12536;BME280;6334;48.696;2.114;2023-03-08T10:34:48;97604.59;;;11.49;86.29
12536;BME280;6334;48.696;2.114;2023-03-08T10:37:19;97606.41;;;11.51;86.30
12536;BME280;6334;48.696;2.114;2023-03-08T10:39:51;97610.64;;;11.60;86.16
12536;BME280;6334;48.696;2.114;2023-03-08T10:42:22;97607.34;;;11.80;85.83
12536;BME280;6334;48.696;2.114;2023-03-08T10:44:53;97609.11;;;11.83;86.28
12536;BME280;6334;48.696;2.114;2023-03-08T10:47:23;97611.90;;;11.99;85.55
12536;BME280;6334;48.696;2.114;2023-03-08T10:52:37;97609.16;;;12.14;85.90
12536;BME280;6334;48.696;2.114;2023-03-08T10:57:55;97623.48;;;11.73;86.65
12536;BME280;6334;48.696;2.114;2023-03-08T11:03:02;97627.48;;;11.47;87.73
12536;BME280;6334;48.696;2.114;2023-03-08T11:05:31;97631.28;;;11.55;87.17
12536;BME280;6334;48.696;2.114;2023-03-08T11:08:02;97635.37;;;11.66;87.44
12536;BME280;6334;48.696;2.114;2023-03-08T11:10:35;97643.80;;;11.52;87.44
12536;BME280;6334;48.696;2.114;2023-03-08T11:16:19;97649.34;;;11.40;88.10
12536;BME280;6334;48.696;2.114;2023-03-08T11:21:59;97629.10;;;11.39;87.37
12536;BME280;6334;48.696;2.114;2023-03-08T11:24:30;97626.23;;;11.44;87.81
12536;BME280;6334;48.696;2.114;2023-03-08T11:32:43;97648.98;;;11.50;86.50
12536;BME280;6334;48.696;2.114;2023-03-08T11:37:46;97653.78;;;11.43;86.08
12536;BME280;6334;48.696;2.114;2023-03-08T11:40:26;97652.34;;;11.54;86.24
12536;BME280;6334;48.696;2.114;2023-03-08T11:43:07;97652.91;;;11.54;86.30
12536;BME280;6334;48.696;2.114;2023-03-08T11:45:49;97645.11;;;11.65;85.87
12536;BME280;6334;48.696;2.114;2023-03-08T11:48:20;97641.50;;;11.83;85.82
12536;BME280;6334;48.696;2.114;2023-03-08T11:50:59;97635.01;;;11.78;85.74
12536;BME280;6334;48.696;2.114;2023-03-08T11:53:42;97629.75;;;11.85;85.31
12536;BME280;6334;48.696;2.114;2023-03-08T12:01:22;97619.47;;;12.15;85.75
12536;BME280;6334;48.696;2.114;2023-03-08T12:03:51;97622.50;;;12.35;85.02
12536;BME280;6334;48.696;2.114;2023-03-08T12:06:26;97626.48;;;12.50;85.36
12536;BME280;6334;48.696;2.114;2023-03-08T12:11:43;97621.08;;;12.53;84.60
12536;BME280;6334;48.696;2.114;2023-03-08T12:14:10;97605.75;;;12.37;85.17
12536;BME280;6334;48.696;2.114;2023-03-08T12:24:57;97606.16;;;12.57;83.36
12536;BME280;6334;48.696;2.114;2023-03-08T12:27:33;97597.45;;;12.56;84.66
12536;BME280;6334;48.696;2.114;2023-03-08T12:32:39;97598.05;;;12.66;83.17
12536;BME280;6334;48.696;2.114;2023-03-08T12:38:01;97595.58;;;12.71;82.08
12536;BME280;6334;48.696;2.114;2023-03-08T12:41:01;97592.47;;;12.71;82.64
12536;BME280;6334;48.696;2.114;2023-03-08T12:43:07;97596.58;;;12.73;82.50
12536;BME280;6334;48.696;2.114;2023-03-08T12:45:34;97595.11;;;12.84;81.77
12536;BME280;6334;48.696;2.114;2023-03-08T12:50:52;97581.54;;;12.75;82.27
12536;BME280;6334;48.696;2.114;2023-03-08T12:53:25;97586.24;;;12.70;82.44
12536;BME280;6334;48.696;2.114;2023-03-08T12:58:46;97569.89;;;12.65;82.35
12536;BME280;6334;48.696;2.114;2023-03-08T13:03:53;97567.29;;;12.43;84.52
12536;BME280;6334;48.696;2.114;2023-03-08T13:09:04;97565.55;;;12.20;85.06
12536;BME280;6334;48.696;2.114;2023-03-08T13:11:36;97560.27;;;12.15;85.64
12536;BME280;6334;48.696;2.114;2023-03-08T13:13:59;97556.95;;;12.01;86.56
12536;BME280;6334;48.696;2.114;2023-03-08T13:16:35;97537.44;;;11.89;86.70
12536;BME280;6334;48.696;2.114;2023-03-08T13:22:10;97540.08;;;11.98;87.31
12536;BME280;6334;48.696;2.114;2023-03-08T13:29:45;97536.77;;;12.03;87.48
12536;BME280;6334;48.696;2.114;2023-03-08T13:32:17;97537.91;;;11.95;87.43
12536;BME280;6334;48.696;2.114;2023-03-08T13:34:58;97540.84;;;11.98;87.78
12536;BME280;6334;48.696;2.114;2023-03-08T13:37:28;97530.99;;;12.09;87.69
12536;BME280;6334;48.696;2.114;2023-03-08T13:39:58;97528.38;;;12.14;87.46
12536;BME280;6334;48.696;2.114;2023-03-08T13:42:28;97532.08;;;12.13;87.94
12536;BME280;6334;48.696;2.114;2023-03-08T13:45:17;97523.36;;;12.27;86.86
12536;BME280;6334;48.696;2.114;2023-03-08T13:47:48;97522.50;;;12.32;86.63
12536;BME280;6334;48.696;2.114;2023-03-08T13:52:54;97512.95;;;12.38;87.03
12536;BME280;6334;48.696;2.114;2023-03-08T13:55:27;97513.77;;;12.40;87.70
12536;BME280;6334;48.696;2.114;2023-03-08T13:57:55;97498.02;;;12.43;87.90
12536;BME280;6334;48.696;2.114;2023-03-08T14:00:34;97496.05;;;12.24;87.28
12536;BME280;6334;48.696;2.114;2023-03-08T14:03:03;97492.95;;;12.19;87.32
12536;BME280;6334;48.696;2.114;2023-03-08T14:05:40;97483.22;;;12.13;87.33
12536;BME280;6334;48.696;2.114;2023-03-08T14:08:22;97471.63;;;11.91;88.29
12536;BME280;6334;48.696;2.114;2023-03-08T14:10:59;97465.95;;;11.87;88.30
12536;BME280;6334;48.696;2.114;2023-03-08T14:13:29;97473.55;;;11.81;88.69
12536;BME280;6334;48.696;2.114;2023-03-08T14:16:00;97477.30;;;11.75;88.75
12536;BME280;6334;48.696;2.114;2023-03-08T14:23:49;97484.95;;;11.82;88.61
12536;BME280;6334;48.696;2.114;2023-03-08T14:26:37;97469.55;;;11.81;88.17
12536;BME280;6334;48.696;2.114;2023-03-08T14:29:28;97481.87;;;11.97;87.62
12536;BME280;6334;48.696;2.114;2023-03-08T14:34:30;97485.61;;;11.96;88.13
12536;BME280;6334;48.696;2.114;2023-03-08T14:37:22;97485.61;;;11.96;88.16
12536;BME280;6334;48.696;2.114;2023-03-08T14:39:52;97493.08;;;12.13;87.04
12536;BME280;6334;48.696;2.114;2023-03-08T14:47:29;97519.55;;;12.01;87.83
12536;BME280;6334;48.696;2.114;2023-03-08T14:52:42;97530.22;;;11.94;88.13
12536;BME280;6334;48.696;2.114;2023-03-08T14:55:21;97543.72;;;11.94;88.17
12536;BME280;6334;48.696;2.114;2023-03-08T14:57:57;97541.98;;;12.04;87.82
12536;BME280;6334;48.696;2.114;2023-03-08T15:00:27;97531.19;;;11.78;89.15
12536;BME280;6334;48.696;2.114;2023-03-08T15:02:57;97534.81;;;11.98;88.11
12536;BME280;6334;48.696;2.114;2023-03-08T15:05:28;97521.58;;;11.98;87.70
12536;BME280;6334;48.696;2.114;2023-03-08T15:07:58;97526.56;;;12.00;87.65
12536;BME280;6334;48.696;2.114;2023-03-08T15:10:38;97526.85;;;11.98;87.75
12536;BME280;6334;48.696;2.114;2023-03-08T15:12:59;97521.05;;;12.13;86.97
12536;BME280;6334;48.696;2.114;2023-03-08T15:15:29;97517.98;;;12.19;86.98
12536;BME280;6334;48.696;2.114;2023-03-08T15:18:00;97511.88;;;12.08;86.90